Terminal Aerodrome Forecast
Issued by NWS Shreveport, LA

Home | Current Version | Previous Version | Text Only | Print | Product List | Glossary On
Versions: 1 2 3 4 5 6 7 8 9 10 11 12 13 14 15 16 17 18 19 20
000
FTUS44 KSHV 201700
TAFLFK
TAF
KLFK 201739Z 2018/2118 10010KT P6SM SCT040
     FM210200 VRB03KT P6SM FEW250
     FM211500 VRB03KT P6SM SCT040 SCT250=

USA.gov is the U.S. government's official web portal to all federal, state and local government web resources and services.